sensor_id;sensor_type;location;lat;lon;timestamp;temperature;humidity
63537;DHT22;49686;51.880;5.632;2022-09-02T00:01:28;14.20;93.60
63537;DHT22;49686;51.880;5.632;2022-09-02T00:03:59;14.20;93.60
63537;DHT22;49686;51.880;5.632;2022-09-02T00:06:28;14.10;93.80
63537;DHT22;49686;51.880;5.632;2022-09-02T00:08:58;14.10;93.80
63537;DHT22;49686;51.880;5.632;2022-09-02T00:11:28;14.10;93.80
63537;DHT22;49686;51.880;5.632;2022-09-02T00:13:56;14.10;93.90
63537;DHT22;49686;51.880;5.632;2022-09-02T00:16:24;14.00;94.00
63537;DHT22;49686;51.880;5.632;2022-09-02T00:18:52;13.90;94.10
63537;DHT22;49686;51.880;5.632;2022-09-02T00:21:20;14.00;94.00
63537;DHT22;49686;51.880;5.632;2022-09-02T00:23:48;13.90;94.20
63537;DHT22;49686;51.880;5.632;2022-09-02T00:26:16;13.90;94.30
63537;DHT22;49686;51.880;5.632;2022-09-02T00:28:44;13.90;94.30
63537;DHT22;49686;51.880;5.632;2022-09-02T00:31:14;13.80;94.40
63537;DHT22;49686;51.880;5.632;2022-09-02T00:33:41;13.80;94.40
63537;DHT22;49686;51.880;5.632;2022-09-02T00:36:09;13.80;94.50
63537;DHT22;49686;51.880;5.632;2022-09-02T00:38:36;13.80;94.60
63537;DHT22;49686;51.880;5.632;2022-09-02T00:41:07;13.70;94.70
63537;DHT22;49686;51.880;5.632;2022-09-02T00:43:41;13.70;94.70
63537;DHT22;49686;51.880;5.632;2022-09-02T00:46:09;13.70;94.90
63537;DHT22;49686;51.880;5.632;2022-09-02T00:48:41;13.70;94.90
63537;DHT22;49686;51.880;5.632;2022-09-02T00:51:09;13.70;94.80
63537;DHT22;49686;51.880;5.632;2022-09-02T00:53:40;13.70;94.90
63537;DHT22;49686;51.880;5.632;2022-09-02T00:56:14;13.70;94.90
63537;DHT22;49686;51.880;5.632;2022-09-02T00:58:45;13.70;94.90
63537;DHT22;49686;51.880;5.632;2022-09-02T01:01:12;13.70;95.00
63537;DHT22;49686;51.880;5.632;2022-09-02T01:03:40;13.70;94.90
63537;DHT22;49686;51.880;5.632;2022-09-02T01:06:09;13.70;94.90
63537;DHT22;49686;51.880;5.632;2022-09-02T01:08:37;13.60;95.00
63537;DHT22;49686;51.880;5.632;2022-09-02T01:11:04;13.60;95.00
63537;DHT22;49686;51.880;5.632;2022-09-02T01:13:38;13.70;95.00
63537;DHT22;49686;51.880;5.632;2022-09-02T01:16:10;13.60;95.20
63537;DHT22;49686;51.880;5.632;2022-09-02T01:18:39;13.50;95.30
63537;DHT22;49686;51.880;5.632;2022-09-02T01:21:08;13.40;95.40
63537;DHT22;49686;51.880;5.632;2022-09-02T01:23:36;13.40;95.50
63537;DHT22;49686;51.880;5.632;2022-09-02T01:26:04;13.50;95.40
63537;DHT22;49686;51.880;5.632;2022-09-02T01:28:30;13.40;95.40
63537;DHT22;49686;51.880;5.632;2022-09-02T01:30:57;13.40;95.70
63537;DHT22;49686;51.880;5.632;2022-09-02T01:33:25;13.30;95.80
63537;DHT22;49686;51.880;5.632;2022-09-02T01:35:53;13.20;95.90
63537;DHT22;49686;51.880;5.632;2022-09-02T01:38:20;13.30;95.90
63537;DHT22;49686;51.880;5.632;2022-09-02T01:40:50;13.30;95.90
63537;DHT22;49686;51.880;5.632;2022-09-02T01:43:18;13.20;96.00
63537;DHT22;49686;51.880;5.632;2022-09-02T01:45:46;13.20;96.10
63537;DHT22;49686;51.880;5.632;2022-09-02T01:48:14;13.20;96.00
63537;DHT22;49686;51.880;5.632;2022-09-02T01:50:49;13.10;96.30
63537;DHT22;49686;51.880;5.632;2022-09-02T01:53:17;13.20;96.10
63537;DHT22;49686;51.880;5.632;2022-09-02T01:55:44;13.10;96.30
63537;DHT22;49686;51.880;5.632;2022-09-02T01:58:12;13.10;96.30
63537;DHT22;49686;51.880;5.632;2022-09-02T02:00:40;13.10;96.30
63537;DHT22;49686;51.880;5.632;2022-09-02T02:03:07;13.10;96.20
63537;DHT22;49686;51.880;5.632;2022-09-02T02:05:35;13.10;96.30
63537;DHT22;49686;51.880;5.632;2022-09-02T02:08:03;13.10;96.40
63537;DHT22;49686;51.880;5.632;2022-09-02T02:10:31;13.00;96.50
63537;DHT22;49686;51.880;5.632;2022-09-02T02:12:58;13.00;96.60
63537;DHT22;49686;51.880;5.632;2022-09-02T02:15:27;12.90;96.60
63537;DHT22;49686;51.880;5.632;2022-09-02T02:17:53;12.90;96.70
63537;DHT22;49686;51.880;5.632;2022-09-02T02:20:20;12.90;96.70
63537;DHT22;49686;51.880;5.632;2022-09-02T02:22:47;13.00;96.60
63537;DHT22;49686;51.880;5.632;2022-09-02T02:25:15;13.00;96.70
63537;DHT22;49686;51.880;5.632;2022-09-02T02:27:43;13.10;96.60
63537;DHT22;49686;51.880;5.632;2022-09-02T02:30:12;13.10;96.50
63537;DHT22;49686;51.880;5.632;2022-09-02T02:32:42;13.00;96.70
63537;DHT22;49686;51.880;5.632;2022-09-02T02:35:11;13.00;96.60
63537;DHT22;49686;51.880;5.632;2022-09-02T02:37:38;13.00;96.60
63537;DHT22;49686;51.880;5.632;2022-09-02T02:40:06;13.00;96.60
63537;DHT22;49686;51.880;5.632;2022-09-02T02:42:33;12.90;96.80
63537;DHT22;49686;51.880;5.632;2022-09-02T02:45:00;13.00;96.70
63537;DHT22;49686;51.880;5.632;2022-09-02T02:47:27;12.90;97.00
63537;DHT22;49686;51.880;5.632;2022-09-02T02:49:56;12.90;97.00
63537;DHT22;49686;51.880;5.632;2022-09-02T02:52:22;12.90;96.90
63537;DHT22;49686;51.880;5.632;2022-09-02T02:54:49;12.80;97.00
63537;DHT22;49686;51.880;5.632;2022-09-02T02:57:16;12.80;97.10
63537;DHT22;49686;51.880;5.632;2022-09-02T02:59:43;12.80;97.10
63537;DHT22;49686;51.880;5.632;2022-09-02T03:02:10;12.80;97.00
63537;DHT22;49686;51.880;5.632;2022-09-02T03:04:37;12.80;97.00
63537;DHT22;49686;51.880;5.632;2022-09-02T03:07:05;12.80;97.10
63537;DHT22;49686;51.880;5.632;2022-09-02T03:09:32;12.80;97.10
63537;DHT22;49686;51.880;5.632;2022-09-02T03:11:59;12.70;97.20
63537;DHT22;49686;51.880;5.632;2022-09-02T03:14:26;12.70;97.30
63537;DHT22;49686;51.880;5.632;2022-09-02T03:16:53;12.60;97.50
63537;DHT22;49686;51.880;5.632;2022-09-02T03:19:20;12.60;97.40
63537;DHT22;49686;51.880;5.632;2022-09-02T03:21:47;12.50;97.50
63537;DHT22;49686;51.880;5.632;2022-09-02T03:24:15;12.50;97.60
63537;DHT22;49686;51.880;5.632;2022-09-02T03:26:42;12.60;97.60
63537;DHT22;49686;51.880;5.632;2022-09-02T03:29:09;12.60;97.70
63537;DHT22;49686;51.880;5.632;2022-09-02T03:31:36;12.60;97.60
63537;DHT22;49686;51.880;5.632;2022-09-02T03:34:05;12.50;97.80
63537;DHT22;49686;51.880;5.632;2022-09-02T03:36:33;12.60;97.80
63537;DHT22;49686;51.880;5.632;2022-09-02T03:39:00;12.50;98.00
63537;DHT22;49686;51.880;5.632;2022-09-02T03:41:29;12.40;98.10
63537;DHT22;49686;51.880;5.632;2022-09-02T03:43:55;12.40;98.30
63537;DHT22;49686;51.880;5.632;2022-09-02T03:46:22;12.40;98.20
63537;DHT22;49686;51.880;5.632;2022-09-02T03:48:50;12.30;98.30
63537;DHT22;49686;51.880;5.632;2022-09-02T03:51:16;12.30;98.50
63537;DHT22;49686;51.880;5.632;2022-09-02T03:53:43;12.30;98.60
63537;DHT22;49686;51.880;5.632;2022-09-02T03:56:11;12.20;98.60
63537;DHT22;49686;51.880;5.632;2022-09-02T03:58:40;12.20;98.90
63537;DHT22;49686;51.880;5.632;2022-09-02T04:01:07;12.30;98.70
63537;DHT22;49686;51.880;5.632;2022-09-02T04:03:34;12.30;98.80
63537;DHT22;49686;51.880;5.632;2022-09-02T04:06:01;12.10;98.90
63537;DHT22;49686;51.880;5.632;2022-09-02T04:08:28;12.20;98.90
63537;DHT22;49686;51.880;5.632;2022-09-02T04:10:55;12.20;99.00
63537;DHT22;49686;51.880;5.632;2022-09-02T04:13:22;12.10;99.10
63537;DHT22;49686;51.880;5.632;2022-09-02T04:15:50;12.10;99.40
63537;DHT22;49686;51.880;5.632;2022-09-02T04:18:17;12.10;99.20
63537;DHT22;49686;51.880;5.632;2022-09-02T04:20:44;12.10;99.20
63537;DHT22;49686;51.880;5.632;2022-09-02T04:23:11;12.10;99.30
63537;DHT22;49686;51.880;5.632;2022-09-02T04:25:39;12.10;99.40
63537;DHT22;49686;51.880;5.632;2022-09-02T04:28:06;12.10;99.50
63537;DHT22;49686;51.880;5.632;2022-09-02T04:30:33;12.10;99.50
63537;DHT22;49686;51.880;5.632;2022-09-02T04:33:01;12.10;99.60
63537;DHT22;49686;51.880;5.632;2022-09-02T04:35:28;12.10;99.60
63537;DHT22;49686;51.880;5.632;2022-09-02T04:37:55;12.20;99.60
63537;DHT22;49686;51.880;5.632;2022-09-02T04:40:21;12.20;99.60
63537;DHT22;49686;51.880;5.632;2022-09-02T04:42:49;12.20;99.60
63537;DHT22;49686;51.880;5.632;2022-09-02T04:45:20;12.30;99.60
63537;DHT22;49686;51.880;5.632;2022-09-02T04:47:52;12.30;99.60
63537;DHT22;49686;51.880;5.632;2022-09-02T04:50:20;12.30;99.60
63537;DHT22;49686;51.880;5.632;2022-09-02T04:52:47;12.30;99.70
63537;DHT22;49686;51.880;5.632;2022-09-02T04:55:14;12.40;99.50
63537;DHT22;49686;51.880;5.632;2022-09-02T04:57:41;12.40;99.50
63537;DHT22;49686;51.880;5.632;2022-09-02T05:00:08;12.40;99.90
63537;DHT22;49686;51.880;5.632;2022-09-02T05:02:35;12.50;99.30
63537;DHT22;49686;51.880;5.632;2022-09-02T05:05:02;12.50;99.30
63537;DHT22;49686;51.880;5.632;2022-09-02T05:07:30;12.60;99.30
63537;DHT22;49686;51.880;5.632;2022-09-02T05:09:58;12.60;99.30
63537;DHT22;49686;51.880;5.632;2022-09-02T05:12:24;12.60;99.20
63537;DHT22;49686;51.880;5.632;2022-09-02T05:14:51;12.70;99.20
63537;DHT22;49686;51.880;5.632;2022-09-02T05:17:18;12.70;99.10
63537;DHT22;49686;51.880;5.632;2022-09-02T05:19:45;12.70;99.00
63537;DHT22;49686;51.880;5.632;2022-09-02T05:22:12;12.80;98.90
63537;DHT22;49686;51.880;5.632;2022-09-02T05:24:40;12.80;98.90
63537;DHT22;49686;51.880;5.632;2022-09-02T05:27:08;12.90;98.90
63537;DHT22;49686;51.880;5.632;2022-09-02T05:29:35;12.90;98.90
63537;DHT22;49686;51.880;5.632;2022-09-02T05:32:02;13.00;98.90
63537;DHT22;49686;51.880;5.632;2022-09-02T05:34:29;13.00;98.70
63537;DHT22;49686;51.880;5.632;2022-09-02T05:36:55;13.10;98.60
63537;DHT22;49686;51.880;5.632;2022-09-02T05:39:23;13.10;98.70
63537;DHT22;49686;51.880;5.632;2022-09-02T05:41:51;13.20;98.60
63537;DHT22;49686;51.880;5.632;2022-09-02T05:44:17;13.20;98.60
63537;DHT22;49686;51.880;5.632;2022-09-02T05:46:45;13.20;98.40
63537;DHT22;49686;51.880;5.632;2022-09-02T05:49:14;13.30;98.40
63537;DHT22;49686;51.880;5.632;2022-09-02T05:51:42;13.40;98.30
63537;DHT22;49686;51.880;5.632;2022-09-02T05:54:10;13.40;98.20
63537;DHT22;49686;51.880;5.632;2022-09-02T05:56:37;13.50;98.20
63537;DHT22;49686;51.880;5.632;2022-09-02T05:59:12;13.50;98.10
63537;DHT22;49686;51.880;5.632;2022-09-02T06:01:39;13.60;98.10
63537;DHT22;49686;51.880;5.632;2022-09-02T06:04:06;13.60;98.20
63537;DHT22;49686;51.880;5.632;2022-09-02T06:06:33;13.60;98.10
63537;DHT22;49686;51.880;5.632;2022-09-02T06:09:00;13.70;97.90
63537;DHT22;49686;51.880;5.632;2022-09-02T06:11:27;13.70;97.80
63537;DHT22;49686;51.880;5.632;2022-09-02T06:13:54;13.80;97.60
63537;DHT22;49686;51.880;5.632;2022-09-02T06:16:22;13.80;97.70
63537;DHT22;49686;51.880;5.632;2022-09-02T06:18:49;13.80;97.60
63537;DHT22;49686;51.880;5.632;2022-09-02T06:21:17;14.20;97.50
63537;DHT22;49686;51.880;5.632;2022-09-02T06:23:44;14.70;96.50
63537;DHT22;49686;51.880;5.632;2022-09-02T06:26:11;15.50;95.10
63537;DHT22;49686;51.880;5.632;2022-09-02T06:28:39;15.80;94.80
63537;DHT22;49686;51.880;5.632;2022-09-02T06:31:06;16.30;94.00
63537;DHT22;49686;51.880;5.632;2022-09-02T06:33:34;16.80;93.80
63537;DHT22;49686;51.880;5.632;2022-09-02T06:36:03;16.50;94.00
63537;DHT22;49686;51.880;5.632;2022-09-02T06:38:30;16.70;93.50
63537;DHT22;49686;51.880;5.632;2022-09-02T06:40:57;16.50;94.00
63537;DHT22;49686;51.880;5.632;2022-09-02T06:43:24;15.50;95.50
63537;DHT22;49686;51.880;5.632;2022-09-02T06:45:51;15.00;95.80
63537;DHT22;49686;51.880;5.632;2022-09-02T06:48:18;15.00;96.50
63537;DHT22;49686;51.880;5.632;2022-09-02T06:50:46;14.90;96.30
63537;DHT22;49686;51.880;5.632;2022-09-02T06:53:13;15.10;96.20
63537;DHT22;49686;51.880;5.632;2022-09-02T06:55:40;15.80;95.60
63537;DHT22;49686;51.880;5.632;2022-09-02T06:58:08;16.10;94.80
63537;DHT22;49686;51.880;5.632;2022-09-02T07:00:35;16.30;95.10
63537;DHT22;49686;51.880;5.632;2022-09-02T07:03:02;16.90;94.30
63537;DHT22;49686;51.880;5.632;2022-09-02T07:05:29;16.50;94.80
63537;DHT22;49686;51.880;5.632;2022-09-02T07:07:57;16.30;94.80
63537;DHT22;49686;51.880;5.632;2022-09-02T07:10:24;15.50;95.70
63537;DHT22;49686;51.880;5.632;2022-09-02T07:12:51;15.80;95.70
63537;DHT22;49686;51.880;5.632;2022-09-02T07:15:18;15.40;96.20
63537;DHT22;49686;51.880;5.632;2022-09-02T07:17:45;15.90;95.50
63537;DHT22;49686;51.880;5.632;2022-09-02T07:20:13;16.30;95.40
63537;DHT22;49686;51.880;5.632;2022-09-02T07:22:40;16.30;95.60
63537;DHT22;49686;51.880;5.632;2022-09-02T07:25:08;17.20;94.50
63537;DHT22;49686;51.880;5.632;2022-09-02T07:27:35;16.90;94.80
63537;DHT22;49686;51.880;5.632;2022-09-02T07:30:02;17.10;94.20
63537;DHT22;49686;51.880;5.632;2022-09-02T07:32:29;18.20;93.40
63537;DHT22;49686;51.880;5.632;2022-09-02T07:34:56;18.60;92.70
63537;DHT22;49686;51.880;5.632;2022-09-02T07:37:23;17.80;93.30
63537;DHT22;49686;51.880;5.632;2022-09-02T07:39:50;17.40;94.10
63537;DHT22;49686;51.880;5.632;2022-09-02T07:42:18;18.10;93.40
63537;DHT22;49686;51.880;5.632;2022-09-02T07:44:45;17.50;93.70
63537;DHT22;49686;51.880;5.632;2022-09-02T07:47:12;17.10;94.20
63537;DHT22;49686;51.880;5.632;2022-09-02T07:49:39;16.90;94.30
63537;DHT22;49686;51.880;5.632;2022-09-02T07:52:26;17.10;94.60
63537;DHT22;49686;51.880;5.632;2022-09-02T07:54:53;17.20;94.20
63537;DHT22;49686;51.880;5.632;2022-09-02T07:57:21;17.00;94.70
63537;DHT22;49686;51.880;5.632;2022-09-02T07:59:48;17.30;94.60
63537;DHT22;49686;51.880;5.632;2022-09-02T08:02:15;17.80;94.20
63537;DHT22;49686;51.880;5.632;2022-09-02T08:04:42;18.20;93.50
63537;DHT22;49686;51.880;5.632;2022-09-02T08:07:09;18.10;93.50
63537;DHT22;49686;51.880;5.632;2022-09-02T08:09:37;18.30;93.60
63537;DHT22;49686;51.880;5.632;2022-09-02T08:12:04;18.90;92.80
63537;DHT22;49686;51.880;5.632;2022-09-02T08:14:32;19.30;91.90
63537;DHT22;49686;51.880;5.632;2022-09-02T08:16:59;19.40;91.70
63537;DHT22;49686;51.880;5.632;2022-09-02T08:19:26;19.00;92.10
63537;DHT22;49686;51.880;5.632;2022-09-02T08:21:53;19.50;91.90
63537;DHT22;49686;51.880;5.632;2022-09-02T08:24:20;18.70;92.30
63537;DHT22;49686;51.880;5.632;2022-09-02T08:26:47;19.10;92.30
63537;DHT22;49686;51.880;5.632;2022-09-02T08:29:14;19.00;92.20
63537;DHT22;49686;51.880;5.632;2022-09-02T08:31:43;19.30;92.30
63537;DHT22;49686;51.880;5.632;2022-09-02T08:34:09;19.70;91.80
63537;DHT22;49686;51.880;5.632;2022-09-02T08:36:36;19.50;91.70
63537;DHT22;49686;51.880;5.632;2022-09-02T08:39:03;19.40;91.90
63537;DHT22;49686;51.880;5.632;2022-09-02T08:41:31;19.40;91.70
63537;DHT22;49686;51.880;5.632;2022-09-02T08:43:59;19.20;92.20
63537;DHT22;49686;51.880;5.632;2022-09-02T08:46:28;20.10;91.40
63537;DHT22;49686;51.880;5.632;2022-09-02T08:48:59;19.80;91.90
63537;DHT22;49686;51.880;5.632;2022-09-02T08:51:29;20.00;91.80
63537;DHT22;49686;51.880;5.632;2022-09-02T08:54:03;19.80;91.80
63537;DHT22;49686;51.880;5.632;2022-09-02T08:56:31;20.50;91.40
63537;DHT22;49686;51.880;5.632;2022-09-02T08:58:58;20.90;91.10
63537;DHT22;49686;51.880;5.632;2022-09-02T09:01:27;21.10;90.80
63537;DHT22;49686;51.880;5.632;2022-09-02T09:04:02;21.30;90.60
63537;DHT22;49686;51.880;5.632;2022-09-02T09:06:32;20.60;90.60
63537;DHT22;49686;51.880;5.632;2022-09-02T09:09:03;21.50;90.20
63537;DHT22;49686;51.880;5.632;2022-09-02T09:11:32;21.00;90.30
63537;DHT22;49686;51.880;5.632;2022-09-02T09:14:08;20.90;90.30
63537;DHT22;49686;51.880;5.632;2022-09-02T09:16:40;20.70;90.00
63537;DHT22;49686;51.880;5.632;2022-09-02T09:19:12;21.00;90.20
63537;DHT22;49686;51.880;5.632;2022-09-02T09:21:39;21.30;90.00
63537;DHT22;49686;51.880;5.632;2022-09-02T09:24:08;21.50;90.00
63537;DHT22;49686;51.880;5.632;2022-09-02T09:26:35;21.60;88.80
63537;DHT22;49686;51.880;5.632;2022-09-02T09:29:04;21.30;89.70
63537;DHT22;49686;51.880;5.632;2022-09-02T09:31:32;21.70;88.70
63537;DHT22;49686;51.880;5.632;2022-09-02T09:34:00;21.90;88.20
63537;DHT22;49686;51.880;5.632;2022-09-02T09:36:47;21.30;89.50
63537;DHT22;49686;51.880;5.632;2022-09-02T09:39:19;21.70;89.20
63537;DHT22;49686;51.880;5.632;2022-09-02T09:41:46;21.10;89.60
63537;DHT22;49686;51.880;5.632;2022-09-02T09:44:27;21.50;88.80
63537;DHT22;49686;51.880;5.632;2022-09-02T09:46:59;21.50;88.90
63537;DHT22;49686;51.880;5.632;2022-09-02T09:49:26;20.80;89.70
63537;DHT22;49686;51.880;5.632;2022-09-02T09:51:55;20.50;89.50
63537;DHT22;49686;51.880;5.632;2022-09-02T09:54:24;20.90;90.00
63537;DHT22;49686;51.880;5.632;2022-09-02T09:56:51;21.80;89.10
63537;DHT22;49686;51.880;5.632;2022-09-02T09:59:33;21.70;88.20
63537;DHT22;49686;51.880;5.632;2022-09-02T10:02:02;21.60;88.40
63537;DHT22;49686;51.880;5.632;2022-09-02T10:04:29;21.90;88.40
63537;DHT22;49686;51.880;5.632;2022-09-02T10:07:14;22.60;87.90
63537;DHT22;49686;51.880;5.632;2022-09-02T10:10:07;22.30;87.30
63537;DHT22;49686;51.880;5.632;2022-09-02T10:12:35;22.10;88.00
63537;DHT22;49686;51.880;5.632;2022-09-02T10:15:02;22.80;87.20
63537;DHT22;49686;51.880;5.632;2022-09-02T10:17:31;22.30;87.30
63537;DHT22;49686;51.880;5.632;2022-09-02T10:20:05;22.30;87.30
63537;DHT22;49686;51.880;5.632;2022-09-02T10:25:30;23.00;86.50
63537;DHT22;49686;51.880;5.632;2022-09-02T10:27:59;23.30;86.00
63537;DHT22;49686;51.880;5.632;2022-09-02T10:30:30;23.10;86.40
63537;DHT22;49686;51.880;5.632;2022-09-02T10:33:02;23.30;86.00
63537;DHT22;49686;51.880;5.632;2022-09-02T10:35:35;23.70;86.20
63537;DHT22;49686;51.880;5.632;2022-09-02T10:38:11;24.70;84.30
63537;DHT22;49686;51.880;5.632;2022-09-02T10:40:42;23.70;85.10
63537;DHT22;49686;51.880;5.632;2022-09-02T10:43:14;23.80;84.30
63537;DHT22;49686;51.880;5.632;2022-09-02T10:45:45;23.90;84.70
63537;DHT22;49686;51.880;5.632;2022-09-02T10:48:19;23.50;84.30
63537;DHT22;49686;51.880;5.632;2022-09-02T10:50:51;23.80;84.40
63537;DHT22;49686;51.880;5.632;2022-09-02T10:53:23;24.40;84.00
63537;DHT22;49686;51.880;5.632;2022-09-02T10:55:55;24.10;83.80
63537;DHT22;49686;51.880;5.632;2022-09-02T10:58:24;24.30;83.40
63537;DHT22;49686;51.880;5.632;2022-09-02T11:00:56;23.60;83.50
63537;DHT22;49686;51.880;5.632;2022-09-02T11:03:24;23.40;84.30
63537;DHT22;49686;51.880;5.632;2022-09-02T11:05:53;24.20;83.00
63537;DHT22;49686;51.880;5.632;2022-09-02T11:08:23;24.20;81.50
63537;DHT22;49686;51.880;5.632;2022-09-02T11:11:00;23.80;83.30
63537;DHT22;49686;51.880;5.632;2022-09-02T11:13:32;23.90;83.30
63537;DHT22;49686;51.880;5.632;2022-09-02T11:16:01;24.50;82.00
63537;DHT22;49686;51.880;5.632;2022-09-02T11:18:32;24.90;80.60
63537;DHT22;49686;51.880;5.632;2022-09-02T11:21:02;24.10;81.30
63537;DHT22;49686;51.880;5.632;2022-09-02T11:23:33;24.00;81.30
63537;DHT22;49686;51.880;5.632;2022-09-02T11:26:03;23.80;80.70
63537;DHT22;49686;51.880;5.632;2022-09-02T11:28:35;24.40;80.10
63537;DHT22;49686;51.880;5.632;2022-09-02T11:31:05;24.40;80.70
63537;DHT22;49686;51.880;5.632;2022-09-02T11:33:36;25.30;79.20
63537;DHT22;49686;51.880;5.632;2022-09-02T11:36:05;24.80;79.40
63537;DHT22;49686;51.880;5.632;2022-09-02T11:38:33;24.20;80.20
63537;DHT22;49686;51.880;5.632;2022-09-02T11:41:20;25.10;79.60
63537;DHT22;49686;51.880;5.632;2022-09-02T11:44:07;23.80;80.70
63537;DHT22;49686;51.880;5.632;2022-09-02T11:46:41;23.80;81.10
63537;DHT22;49686;51.880;5.632;2022-09-02T11:52:00;23.70;80.70
63537;DHT22;49686;51.880;5.632;2022-09-02T11:54:32;22.90;80.00
63537;DHT22;49686;51.880;5.632;2022-09-02T11:57:02;23.10;80.80
63537;DHT22;49686;51.880;5.632;2022-09-02T12:02:24;23.10;79.30
63537;DHT22;49686;51.880;5.632;2022-09-02T12:05:03;23.00;79.40
63537;DHT22;49686;51.880;5.632;2022-09-02T12:07:51;23.10;78.60
63537;DHT22;49686;51.880;5.632;2022-09-02T12:13:01;23.40;76.50
63537;DHT22;49686;51.880;5.632;2022-09-02T12:15:33;23.00;75.90
63537;DHT22;49686;51.880;5.632;2022-09-02T12:18:25;23.10;76.40
63537;DHT22;49686;51.880;5.632;2022-09-02T12:26:27;23.00;75.20
63537;DHT22;49686;51.880;5.632;2022-09-02T12:29:09;23.00;75.00
63537;DHT22;49686;51.880;5.632;2022-09-02T12:31:37;22.80;76.40
63537;DHT22;49686;51.880;5.632;2022-09-02T12:36:47;23.00;77.20
63537;DHT22;49686;51.880;5.632;2022-09-02T12:42:02;24.40;75.30
63537;DHT22;49686;51.880;5.632;2022-09-02T12:44:31;24.20;74.80
63537;DHT22;49686;51.880;5.632;2022-09-02T12:47:05;24.10;74.90
63537;DHT22;49686;51.880;5.632;2022-09-02T12:49:42;23.70;75.50
63537;DHT22;49686;51.880;5.632;2022-09-02T12:52:36;23.50;75.80
63537;DHT22;49686;51.880;5.632;2022-09-02T12:55:01;23.30;76.40
63537;DHT22;49686;51.880;5.632;2022-09-02T12:57:36;23.40;76.80
63537;DHT22;49686;51.880;5.632;2022-09-02T13:00:06;23.00;77.30
63537;DHT22;49686;51.880;5.632;2022-09-02T13:02:37;23.00;77.50
63537;DHT22;49686;51.880;5.632;2022-09-02T13:05:09;23.30;77.40
63537;DHT22;49686;51.880;5.632;2022-09-02T13:13:19;23.90;76.40
63537;DHT22;49686;51.880;5.632;2022-09-02T13:16:02;24.10;75.30
63537;DHT22;49686;51.880;5.632;2022-09-02T13:18:48;25.00;74.10
63537;DHT22;49686;51.880;5.632;2022-09-02T13:26:57;24.50;72.60
63537;DHT22;49686;51.880;5.632;2022-09-02T13:29:41;25.30;71.40
63537;DHT22;49686;51.880;5.632;2022-09-02T13:32:21;25.00;72.30
63537;DHT22;49686;51.880;5.632;2022-09-02T13:34:48;24.80;70.60
63537;DHT22;49686;51.880;5.632;2022-09-02T13:37:26;25.40;69.10
63537;DHT22;49686;51.880;5.632;2022-09-02T13:39:53;25.30;68.60
63537;DHT22;49686;51.880;5.632;2022-09-02T13:42:21;25.30;68.00
63537;DHT22;49686;51.880;5.632;2022-09-02T13:44:50;26.20;67.50
63537;DHT22;49686;51.880;5.632;2022-09-02T13:47:17;26.10;67.70
63537;DHT22;49686;51.880;5.632;2022-09-02T13:49:46;26.50;67.20
63537;DHT22;49686;51.880;5.632;2022-09-02T13:52:15;25.80;67.30
63537;DHT22;49686;51.880;5.632;2022-09-02T13:54:43;24.80;68.00
63537;DHT22;49686;51.880;5.632;2022-09-02T13:57:12;25.30;68.20
63537;DHT22;49686;51.880;5.632;2022-09-02T13:59:39;25.80;68.10
63537;DHT22;49686;51.880;5.632;2022-09-02T14:02:19;25.90;68.70
63537;DHT22;49686;51.880;5.632;2022-09-02T14:04:50;25.00;68.90
63537;DHT22;49686;51.880;5.632;2022-09-02T14:07:21;24.40;69.90
63537;DHT22;49686;51.880;5.632;2022-09-02T14:09:50;23.80;70.20
63537;DHT22;49686;51.880;5.632;2022-09-02T14:12:17;24.10;70.50
63537;DHT22;49686;51.880;5.632;2022-09-02T14:14:44;24.30;69.70
63537;DHT22;49686;51.880;5.632;2022-09-02T14:17:19;25.00;69.80
63537;DHT22;49686;51.880;5.632;2022-09-02T14:19:48;24.70;70.10
63537;DHT22;49686;51.880;5.632;2022-09-02T14:22:21;24.80;70.60
63537;DHT22;49686;51.880;5.632;2022-09-02T14:24:48;24.40;71.30
63537;DHT22;49686;51.880;5.632;2022-09-02T14:27:16;24.50;70.80
63537;DHT22;49686;51.880;5.632;2022-09-02T14:29:43;24.40;70.70
63537;DHT22;49686;51.880;5.632;2022-09-02T14:32:12;24.60;70.70
63537;DHT22;49686;51.880;5.632;2022-09-02T14:34:40;24.50;71.00
63537;DHT22;49686;51.880;5.632;2022-09-02T14:37:16;24.60;71.30
63537;DHT22;49686;51.880;5.632;2022-09-02T14:39:51;24.20;70.70
63537;DHT22;49686;51.880;5.632;2022-09-02T14:42:18;24.60;70.50
63537;DHT22;49686;51.880;5.632;2022-09-02T14:44:45;23.90;70.30
63537;DHT22;49686;51.880;5.632;2022-09-02T14:47:12;24.20;70.70
63537;DHT22;49686;51.880;5.632;2022-09-02T14:49:44;24.10;69.10
63537;DHT22;49686;51.880;5.632;2022-09-02T14:52:15;25.00;69.50
63537;DHT22;49686;51.880;5.632;2022-09-02T14:54:44;25.00;68.50
63537;DHT22;49686;51.880;5.632;2022-09-02T14:57:18;24.20;68.80
63537;DHT22;49686;51.880;5.632;2022-09-02T14:59:46;23.80;68.60
63537;DHT22;49686;51.880;5.632;2022-09-02T15:02:23;23.70;69.40
63537;DHT22;49686;51.880;5.632;2022-09-02T15:04:50;23.60;69.30
63537;DHT22;49686;51.880;5.632;2022-09-02T15:07:18;23.90;69.20
63537;DHT22;49686;51.880;5.632;2022-09-02T15:09:45;24.20;68.80
63537;DHT22;49686;51.880;5.632;2022-09-02T15:12:12;24.70;68.10
63537;DHT22;49686;51.880;5.632;2022-09-02T15:14:45;24.40;67.80
63537;DHT22;49686;51.880;5.632;2022-09-02T15:17:13;24.70;68.00
63537;DHT22;49686;51.880;5.632;2022-09-02T15:19:40;24.30;68.40
63537;DHT22;49686;51.880;5.632;2022-09-02T15:22:07;24.60;68.20
63537;DHT22;49686;51.880;5.632;2022-09-02T15:24:36;24.50;68.20
63537;DHT22;49686;51.880;5.632;2022-09-02T15:27:03;24.00;69.00
63537;DHT22;49686;51.880;5.632;2022-09-02T15:29:29;24.00;68.80
63537;DHT22;49686;51.880;5.632;2022-09-02T15:31:57;24.20;68.60
63537;DHT22;49686;51.880;5.632;2022-09-02T15:34:25;24.40;69.00
63537;DHT22;49686;51.880;5.632;2022-09-02T15:36:53;23.80;69.10
63537;DHT22;49686;51.880;5.632;2022-09-02T15:39:20;24.00;68.80
63537;DHT22;49686;51.880;5.632;2022-09-02T15:41:48;24.00;68.80
63537;DHT22;49686;51.880;5.632;2022-09-02T15:44:15;23.90;68.90
63537;DHT22;49686;51.880;5.632;2022-09-02T15:46:44;24.00;68.40
63537;DHT22;49686;51.880;5.632;2022-09-02T15:49:11;24.00;68.50
63537;DHT22;49686;51.880;5.632;2022-09-02T15:51:39;23.70;68.50
63537;DHT22;49686;51.880;5.632;2022-09-02T15:54:08;23.80;68.10
63537;DHT22;49686;51.880;5.632;2022-09-02T15:56:36;23.90;69.30
63537;DHT22;49686;51.880;5.632;2022-09-02T15:59:05;23.50;68.80
63537;DHT22;49686;51.880;5.632;2022-09-02T16:01:33;23.60;68.60
63537;DHT22;49686;51.880;5.632;2022-09-02T16:04:00;23.50;68.60
63537;DHT22;49686;51.880;5.632;2022-09-02T16:06:28;23.60;68.30
63537;DHT22;49686;51.880;5.632;2022-09-02T16:08:54;23.50;68.30
63537;DHT22;49686;51.880;5.632;2022-09-02T16:11:21;23.60;68.40
63537;DHT22;49686;51.880;5.632;2022-09-02T16:13:49;23.60;69.00
63537;DHT22;49686;51.880;5.632;2022-09-02T16:16:17;23.90;68.80